sensor_id;sensor_type;location;lat;lon;timestamp;P1;durP1;ratioP1;P2;durP2;ratioP2
77868;SDS011;67231;59.144;37.934;2023-07-28T00:00:17;7.57;;;3.95;;
77868;SDS011;67231;59.144;37.934;2023-07-28T00:02:44;7.20;;;4.03;;
77868;SDS011;67231;59.144;37.934;2023-07-28T00:05:10;7.50;;;3.95;;
77868;SDS011;67231;59.144;37.934;2023-07-28T00:07:37;5.90;;;3.70;;
77868;SDS011;67231;59.144;37.934;2023-07-28T00:10:03;7.35;;;4.03;;
77868;SDS011;67231;59.144;37.934;2023-07-28T00:12:32;6.93;;;3.90;;
77868;SDS011;67231;59.144;37.934;2023-07-28T00:14:58;7.90;;;4.72;;
77868;SDS011;67231;59.144;37.934;2023-07-28T00:17:26;5.85;;;3.60;;
77868;SDS011;67231;59.144;37.934;2023-07-28T00:19:52;9.60;;;4.20;;
77868;SDS011;67231;59.144;37.934;2023-07-28T00:22:18;9.02;;;4.20;;
77868;SDS011;67231;59.144;37.934;2023-07-28T00:24:45;6.18;;;3.70;;
77868;SDS011;67231;59.144;37.934;2023-07-28T00:27:11;8.02;;;4.20;;
77868;SDS011;67231;59.144;37.934;2023-07-28T00:29:41;9.90;;;4.57;;
77868;SDS011;67231;59.144;37.934;2023-07-28T00:32:07;7.85;;;4.15;;
77868;SDS011;67231;59.144;37.934;2023-07-28T00:34:36;8.40;;;3.80;;
77868;SDS011;67231;59.144;37.934;2023-07-28T00:37:02;6.95;;;4.05;;
77868;SDS011;67231;59.144;37.934;2023-07-28T00:39:29;5.93;;;3.63;;
77868;SDS011;67231;59.144;37.934;2023-07-28T00:42:00;6.45;;;3.85;;
77868;SDS011;67231;59.144;37.934;2023-07-28T00:44:26;6.18;;;3.60;;
77868;SDS011;67231;59.144;37.934;2023-07-28T00:46:53;7.00;;;4.10;;
77868;SDS011;67231;59.144;37.934;2023-07-28T00:49:19;5.65;;;3.78;;
77868;SDS011;67231;59.144;37.934;2023-07-28T00:51:45;6.13;;;3.65;;
77868;SDS011;67231;59.144;37.934;2023-07-28T00:54:12;6.70;;;3.88;;
77868;SDS011;67231;59.144;37.934;2023-07-28T00:56:38;5.45;;;3.78;;
77868;SDS011;67231;59.144;37.934;2023-07-28T00:59:04;6.35;;;3.90;;
77868;SDS011;67231;59.144;37.934;2023-07-28T01:01:31;5.50;;;3.70;;
77868;SDS011;67231;59.144;37.934;2023-07-28T01:03:57;5.75;;;4.13;;
77868;SDS011;67231;59.144;37.934;2023-07-28T01:09:12;5.63;;;3.70;;
77868;SDS011;67231;59.144;37.934;2023-07-28T01:11:56;6.43;;;3.70;;
77868;SDS011;67231;59.144;37.934;2023-07-28T01:14:24;7.63;;;3.70;;
77868;SDS011;67231;59.144;37.934;2023-07-28T01:16:51;6.55;;;3.85;;
77868;SDS011;67231;59.144;37.934;2023-07-28T01:19:17;7.75;;;4.18;;
77868;SDS011;67231;59.144;37.934;2023-07-28T01:21:48;5.75;;;4.00;;
77868;SDS011;67231;59.144;37.934;2023-07-28T01:24:29;6.43;;;3.83;;
77868;SDS011;67231;59.144;37.934;2023-07-28T01:27:17;6.38;;;4.20;;
77868;SDS011;67231;59.144;37.934;2023-07-28T01:29:44;7.63;;;4.63;;
77868;SDS011;67231;59.144;37.934;2023-07-28T01:32:11;6.47;;;3.95;;
77868;SDS011;67231;59.144;37.934;2023-07-28T01:34:37;6.03;;;3.90;;
77868;SDS011;67231;59.144;37.934;2023-07-28T01:37:04;6.72;;;4.05;;
77868;SDS011;67231;59.144;37.934;2023-07-28T01:39:30;8.23;;;4.60;;
77868;SDS011;67231;59.144;37.934;2023-07-28T01:41:57;6.47;;;3.83;;
77868;SDS011;67231;59.144;37.934;2023-07-28T01:44:24;7.47;;;4.05;;
77868;SDS011;67231;59.144;37.934;2023-07-28T01:46:50;6.82;;;4.03;;
77868;SDS011;67231;59.144;37.934;2023-07-28T01:49:16;5.43;;;3.65;;
77868;SDS011;67231;59.144;37.934;2023-07-28T01:51:43;6.40;;;3.53;;
77868;SDS011;67231;59.144;37.934;2023-07-28T01:54:09;6.40;;;4.25;;
77868;SDS011;67231;59.144;37.934;2023-07-28T01:56:36;6.60;;;3.92;;
77868;SDS011;67231;59.144;37.934;2023-07-28T01:59:02;5.10;;;3.70;;
77868;SDS011;67231;59.144;37.934;2023-07-28T02:01:29;7.43;;;3.55;;
77868;SDS011;67231;59.144;37.934;2023-07-28T02:03:55;6.93;;;3.70;;
77868;SDS011;67231;59.144;37.934;2023-07-28T02:06:22;4.65;;;3.42;;
77868;SDS011;67231;59.144;37.934;2023-07-28T02:08:48;5.43;;;3.60;;
77868;SDS011;67231;59.144;37.934;2023-07-28T02:11:15;7.20;;;4.10;;
77868;SDS011;67231;59.144;37.934;2023-07-28T02:13:41;5.30;;;4.13;;
77868;SDS011;67231;59.144;37.934;2023-07-28T02:16:13;6.60;;;4.00;;
77868;SDS011;67231;59.144;37.934;2023-07-28T02:18:39;5.90;;;3.83;;
77868;SDS011;67231;59.144;37.934;2023-07-28T02:21:08;6.55;;;4.18;;
77868;SDS011;67231;59.144;37.934;2023-07-28T02:23:34;5.90;;;4.22;;
77868;SDS011;67231;59.144;37.934;2023-07-28T02:26:01;5.22;;;3.85;;
77868;SDS011;67231;59.144;37.934;2023-07-28T02:28:27;7.40;;;3.70;;
77868;SDS011;67231;59.144;37.934;2023-07-28T02:30:56;6.57;;;3.80;;
77868;SDS011;67231;59.144;37.934;2023-07-28T02:33:22;5.20;;;3.67;;
77868;SDS011;67231;59.144;37.934;2023-07-28T02:35:48;7.20;;;4.18;;
77868;SDS011;67231;59.144;37.934;2023-07-28T02:38:15;5.97;;;3.70;;
77868;SDS011;67231;59.144;37.934;2023-07-28T02:40:42;5.90;;;3.88;;
77868;SDS011;67231;59.144;37.934;2023-07-28T02:43:08;5.60;;;3.88;;
77868;SDS011;67231;59.144;37.934;2023-07-28T02:45:35;6.38;;;4.18;;
77868;SDS011;67231;59.144;37.934;2023-07-28T02:48:01;9.10;;;4.15;;
77868;SDS011;67231;59.144;37.934;2023-07-28T02:50:27;7.15;;;4.20;;
77868;SDS011;67231;59.144;37.934;2023-07-28T02:52:54;5.60;;;4.07;;
77868;SDS011;67231;59.144;37.934;2023-07-28T02:55:20;5.93;;;4.05;;
77868;SDS011;67231;59.144;37.934;2023-07-28T02:57:47;8.05;;;4.18;;
77868;SDS011;67231;59.144;37.934;2023-07-28T03:00:13;7.63;;;4.20;;
77868;SDS011;67231;59.144;37.934;2023-07-28T03:02:40;7.65;;;4.10;;
77868;SDS011;67231;59.144;37.934;2023-07-28T03:05:07;6.03;;;3.90;;
77868;SDS011;67231;59.144;37.934;2023-07-28T03:07:51;7.10;;;4.40;;
77868;SDS011;67231;59.144;37.934;2023-07-28T03:10:18;6.68;;;4.60;;
77868;SDS011;67231;59.144;37.934;2023-07-28T03:12:46;6.65;;;4.20;;
77868;SDS011;67231;59.144;37.934;2023-07-28T03:15:12;7.60;;;4.78;;
77868;SDS011;67231;59.144;37.934;2023-07-28T03:17:38;6.40;;;4.30;;
77868;SDS011;67231;59.144;37.934;2023-07-28T03:20:05;6.93;;;4.47;;
77868;SDS011;67231;59.144;37.934;2023-07-28T03:22:32;8.23;;;4.35;;
77868;SDS011;67231;59.144;37.934;2023-07-28T03:24:58;7.35;;;4.68;;
77868;SDS011;67231;59.144;37.934;2023-07-28T03:27:25;8.73;;;4.72;;
77868;SDS011;67231;59.144;37.934;2023-07-28T03:29:51;7.63;;;4.75;;
77868;SDS011;67231;59.144;37.934;2023-07-28T03:34:46;6.60;;;4.28;;
77868;SDS011;67231;59.144;37.934;2023-07-28T03:37:17;7.75;;;4.40;;
77868;SDS011;67231;59.144;37.934;2023-07-28T03:39:44;7.68;;;4.53;;
77868;SDS011;67231;59.144;37.934;2023-07-28T03:42:10;9.82;;;4.80;;
77868;SDS011;67231;59.144;37.934;2023-07-28T03:44:37;7.68;;;4.78;;
77868;SDS011;67231;59.144;37.934;2023-07-28T03:47:03;6.32;;;4.78;;
77868;SDS011;67231;59.144;37.934;2023-07-28T03:49:30;7.35;;;4.45;;
77868;SDS011;67231;59.144;37.934;2023-07-28T03:51:56;8.05;;;4.70;;
77868;SDS011;67231;59.144;37.934;2023-07-28T03:54:23;7.97;;;5.07;;
77868;SDS011;67231;59.144;37.934;2023-07-28T03:56:49;8.20;;;4.93;;
77868;SDS011;67231;59.144;37.934;2023-07-28T03:59:16;6.40;;;4.53;;
77868;SDS011;67231;59.144;37.934;2023-07-28T04:01:42;7.57;;;4.05;;
77868;SDS011;67231;59.144;37.934;2023-07-28T04:04:08;6.30;;;4.60;;
77868;SDS011;67231;59.144;37.934;2023-07-28T04:06:42;9.32;;;5.80;;
77868;SDS011;67231;59.144;37.934;2023-07-28T04:09:10;6.78;;;4.55;;
77868;SDS011;67231;59.144;37.934;2023-07-28T04:14:04;9.05;;;4.80;;
77868;SDS011;67231;59.144;37.934;2023-07-28T04:16:31;6.90;;;4.53;;
77868;SDS011;67231;59.144;37.934;2023-07-28T04:18:58;7.50;;;4.40;;
77868;SDS011;67231;59.144;37.934;2023-07-28T04:21:24;7.47;;;5.38;;
77868;SDS011;67231;59.144;37.934;2023-07-28T04:23:51;8.50;;;4.50;;
77868;SDS011;67231;59.144;37.934;2023-07-28T04:26:18;8.07;;;4.68;;
77868;SDS011;67231;59.144;37.934;2023-07-28T04:28:48;8.23;;;5.47;;
77868;SDS011;67231;59.144;37.934;2023-07-28T04:31:14;9.13;;;5.45;;
77868;SDS011;67231;59.144;37.934;2023-07-28T04:34:03;8.30;;;5.50;;
77868;SDS011;67231;59.144;37.934;2023-07-28T04:36:49;14.18;;;6.07;;
77868;SDS011;67231;59.144;37.934;2023-07-28T04:39:20;12.30;;;5.90;;
77868;SDS011;67231;59.144;37.934;2023-07-28T04:41:46;7.00;;;5.50;;
77868;SDS011;67231;59.144;37.934;2023-07-28T04:44:17;9.15;;;5.93;;
77868;SDS011;67231;59.144;37.934;2023-07-28T04:46:44;16.40;;;7.50;;
77868;SDS011;67231;59.144;37.934;2023-07-28T04:49:13;10.57;;;5.50;;
77868;SDS011;67231;59.144;37.934;2023-07-28T04:52:00;7.93;;;5.13;;
77868;SDS011;67231;59.144;37.934;2023-07-28T04:54:55;11.02;;;5.63;;
77868;SDS011;67231;59.144;37.934;2023-07-28T04:57:22;8.50;;;5.07;;
77868;SDS011;67231;59.144;37.934;2023-07-28T04:59:48;11.23;;;5.57;;
77868;SDS011;67231;59.144;37.934;2023-07-28T05:02:15;9.50;;;6.38;;
77868;SDS011;67231;59.144;37.934;2023-07-28T05:04:41;13.15;;;7.38;;
77868;SDS011;67231;59.144;37.934;2023-07-28T05:07:08;11.75;;;7.13;;
77868;SDS011;67231;59.144;37.934;2023-07-28T05:09:34;16.50;;;6.18;;
77868;SDS011;67231;59.144;37.934;2023-07-28T05:12:00;9.25;;;5.47;;
77868;SDS011;67231;59.144;37.934;2023-07-28T05:14:28;13.68;;;6.65;;
77868;SDS011;67231;59.144;37.934;2023-07-28T05:16:55;11.90;;;7.20;;
77868;SDS011;67231;59.144;37.934;2023-07-28T05:19:22;10.38;;;6.40;;
77868;SDS011;67231;59.144;37.934;2023-07-28T05:21:54;11.02;;;6.57;;
77868;SDS011;67231;59.144;37.934;2023-07-28T05:24:27;12.20;;;6.88;;
77868;SDS011;67231;59.144;37.934;2023-07-28T05:26:54;21.63;;;7.55;;
77868;SDS011;67231;59.144;37.934;2023-07-28T05:29:21;19.63;;;7.25;;
77868;SDS011;67231;59.144;37.934;2023-07-28T05:31:47;9.55;;;5.57;;
77868;SDS011;67231;59.144;37.934;2023-07-28T05:34:25;12.70;;;6.25;;
77868;SDS011;67231;59.144;37.934;2023-07-28T05:36:52;23.65;;;8.70;;
77868;SDS011;67231;59.144;37.934;2023-07-28T05:39:18;19.90;;;9.48;;
77868;SDS011;67231;59.144;37.934;2023-07-28T05:41:45;23.85;;;11.32;;
77868;SDS011;67231;59.144;37.934;2023-07-28T05:44:13;21.98;;;10.10;;
77868;SDS011;67231;59.144;37.934;2023-07-28T05:46:40;16.30;;;8.27;;
77868;SDS011;67231;59.144;37.934;2023-07-28T05:49:07;16.33;;;7.00;;
77868;SDS011;67231;59.144;37.934;2023-07-28T05:51:33;15.38;;;7.20;;
77868;SDS011;67231;59.144;37.934;2023-07-28T05:54:00;14.02;;;6.80;;
77868;SDS011;67231;59.144;37.934;2023-07-28T05:56:26;18.20;;;7.50;;
77868;SDS011;67231;59.144;37.934;2023-07-28T05:58:52;14.65;;;7.40;;
77868;SDS011;67231;59.144;37.934;2023-07-28T06:01:18;20.70;;;9.38;;
77868;SDS011;67231;59.144;37.934;2023-07-28T06:04:11;23.77;;;11.27;;
77868;SDS011;67231;59.144;37.934;2023-07-28T06:06:43;25.48;;;11.07;;
77868;SDS011;67231;59.144;37.934;2023-07-28T06:09:12;17.52;;;10.10;;
77868;SDS011;67231;59.144;37.934;2023-07-28T06:11:39;22.75;;;13.02;;
77868;SDS011;67231;59.144;37.934;2023-07-28T06:14:06;13.25;;;7.07;;
77868;SDS011;67231;59.144;37.934;2023-07-28T06:16:35;12.90;;;7.88;;
77868;SDS011;67231;59.144;37.934;2023-07-28T06:19:01;12.45;;;7.65;;
77868;SDS011;67231;59.144;37.934;2023-07-28T06:21:30;15.50;;;9.52;;
77868;SDS011;67231;59.144;37.934;2023-07-28T06:23:56;20.23;;;10.10;;
77868;SDS011;67231;59.144;37.934;2023-07-28T06:26:23;17.45;;;7.93;;
77868;SDS011;67231;59.144;37.934;2023-07-28T06:28:49;22.75;;;11.23;;
77868;SDS011;67231;59.144;37.934;2023-07-28T06:31:16;12.07;;;7.03;;
77868;SDS011;67231;59.144;37.934;2023-07-28T06:33:42;21.75;;;8.68;;
77868;SDS011;67231;59.144;37.934;2023-07-28T06:36:09;10.60;;;6.47;;
77868;SDS011;67231;59.144;37.934;2023-07-28T06:38:35;10.48;;;6.53;;
77868;SDS011;67231;59.144;37.934;2023-07-28T06:41:02;11.02;;;7.00;;
77868;SDS011;67231;59.144;37.934;2023-07-28T06:43:28;16.50;;;9.00;;
77868;SDS011;67231;59.144;37.934;2023-07-28T06:45:54;11.35;;;7.55;;
77868;SDS011;67231;59.144;37.934;2023-07-28T06:48:21;10.98;;;7.85;;
77868;SDS011;67231;59.144;37.934;2023-07-28T06:50:47;14.95;;;9.15;;
77868;SDS011;67231;59.144;37.934;2023-07-28T06:53:13;18.02;;;10.13;;
77868;SDS011;67231;59.144;37.934;2023-07-28T06:55:40;21.65;;;10.50;;
77868;SDS011;67231;59.144;37.934;2023-07-28T06:58:08;17.92;;;10.27;;
77868;SDS011;67231;59.144;37.934;2023-07-28T07:00:35;14.40;;;8.77;;
77868;SDS011;67231;59.144;37.934;2023-07-28T07:03:01;16.08;;;9.40;;
77868;SDS011;67231;59.144;37.934;2023-07-28T07:05:28;12.20;;;8.55;;
77868;SDS011;67231;59.144;37.934;2023-07-28T07:07:54;14.60;;;8.75;;
77868;SDS011;67231;59.144;37.934;2023-07-28T07:10:22;23.23;;;11.23;;
77868;SDS011;67231;59.144;37.934;2023-07-28T07:12:49;19.50;;;10.43;;
77868;SDS011;67231;59.144;37.934;2023-07-28T07:15:15;21.98;;;9.48;;
77868;SDS011;67231;59.144;37.934;2023-07-28T07:17:42;20.30;;;10.85;;
77868;SDS011;67231;59.144;37.934;2023-07-28T07:20:08;20.67;;;10.80;;
77868;SDS011;67231;59.144;37.934;2023-07-28T07:22:36;13.57;;;8.95;;
77868;SDS011;67231;59.144;37.934;2023-07-28T07:25:03;15.50;;;9.57;;
77868;SDS011;67231;59.144;37.934;2023-07-28T07:27:32;17.55;;;11.73;;
77868;SDS011;67231;59.144;37.934;2023-07-28T07:29:58;17.17;;;10.57;;
77868;SDS011;67231;59.144;37.934;2023-07-28T07:32:24;20.00;;;10.50;;
77868;SDS011;67231;59.144;37.934;2023-07-28T07:34:50;12.75;;;8.30;;
77868;SDS011;67231;59.144;37.934;2023-07-28T07:37:19;14.38;;;10.18;;
77868;SDS011;67231;59.144;37.934;2023-07-28T07:39:45;15.43;;;10.55;;
77868;SDS011;67231;59.144;37.934;2023-07-28T07:42:12;13.40;;;9.70;;
77868;SDS011;67231;59.144;37.934;2023-07-28T07:44:39;14.23;;;10.18;;
77868;SDS011;67231;59.144;37.934;2023-07-28T07:47:13;17.27;;;11.23;;
77868;SDS011;67231;59.144;37.934;2023-07-28T07:49:41;15.95;;;9.73;;
77868;SDS011;67231;59.144;37.934;2023-07-28T07:52:08;15.48;;;10.13;;
77868;SDS011;67231;59.144;37.934;2023-07-28T07:54:37;16.15;;;10.13;;
77868;SDS011;67231;59.144;37.934;2023-07-28T07:57:04;14.25;;;10.07;;
77868;SDS011;67231;59.144;37.934;2023-07-28T07:59:30;16.00;;;11.10;;
77868;SDS011;67231;59.144;37.934;2023-07-28T08:01:59;18.10;;;10.80;;
77868;SDS011;67231;59.144;37.934;2023-07-28T08:04:28;16.63;;;10.48;;
77868;SDS011;67231;59.144;37.934;2023-07-28T08:06:54;18.27;;;10.77;;
77868;SDS011;67231;59.144;37.934;2023-07-28T08:09:20;17.38;;;11.93;;
77868;SDS011;67231;59.144;37.934;2023-07-28T08:11:47;17.05;;;10.52;;
77868;SDS011;67231;59.144;37.934;2023-07-28T08:14:14;16.15;;;11.27;;
77868;SDS011;67231;59.144;37.934;2023-07-28T08:16:40;17.55;;;11.77;;
77868;SDS011;67231;59.144;37.934;2023-07-28T08:19:07;18.48;;;11.50;;
77868;SDS011;67231;59.144;37.934;2023-07-28T08:21:33;24.05;;;13.18;;
77868;SDS011;67231;59.144;37.934;2023-07-28T08:24:03;16.17;;;11.23;;
77868;SDS011;67231;59.144;37.934;2023-07-28T08:26:30;22.52;;;11.40;;
77868;SDS011;67231;59.144;37.934;2023-07-28T08:28:56;15.82;;;10.98;;
77868;SDS011;67231;59.144;37.934;2023-07-28T08:31:22;18.55;;;11.15;;
77868;SDS011;67231;59.144;37.934;2023-07-28T08:33:49;15.32;;;9.90;;
77868;SDS011;67231;59.144;37.934;2023-07-28T08:36:15;15.43;;;10.93;;
77868;SDS011;67231;59.144;37.934;2023-07-28T08:38:42;16.45;;;11.05;;
77868;SDS011;67231;59.144;37.934;2023-07-28T08:41:10;16.77;;;11.77;;
77868;SDS011;67231;59.144;37.934;2023-07-28T08:43:38;15.93;;;11.52;;
77868;SDS011;67231;59.144;37.934;2023-07-28T08:46:04;16.30;;;11.20;;
77868;SDS011;67231;59.144;37.934;2023-07-28T08:48:30;15.52;;;10.85;;
77868;SDS011;67231;59.144;37.934;2023-07-28T08:50:57;16.67;;;12.00;;
77868;SDS011;67231;59.144;37.934;2023-07-28T08:53:23;17.52;;;11.60;;
77868;SDS011;67231;59.144;37.934;2023-07-28T08:55:50;17.75;;;11.95;;
77868;SDS011;67231;59.144;37.934;2023-07-28T08:58:21;27.30;;;12.77;;
77868;SDS011;67231;59.144;37.934;2023-07-28T09:00:50;40.92;;;15.80;;
77868;SDS011;67231;59.144;37.934;2023-07-28T09:03:18;31.95;;;14.43;;
77868;SDS011;67231;59.144;37.934;2023-07-28T09:05:45;20.30;;;12.43;;
77868;SDS011;67231;59.144;37.934;2023-07-28T09:08:12;82.85;;;23.98;;
77868;SDS011;67231;59.144;37.934;2023-07-28T09:10:40;18.00;;;11.25;;
77868;SDS011;67231;59.144;37.934;2023-07-28T09:13:11;18.38;;;11.88;;
77868;SDS011;67231;59.144;37.934;2023-07-28T09:15:39;20.83;;;11.40;;
77868;SDS011;67231;59.144;37.934;2023-07-28T09:18:09;18.60;;;11.98;;
77868;SDS011;67231;59.144;37.934;2023-07-28T09:20:38;18.90;;;12.25;;
77868;SDS011;67231;59.144;37.934;2023-07-28T09:23:08;19.85;;;11.98;;
77868;SDS011;67231;59.144;37.934;2023-07-28T09:25:35;17.30;;;11.73;;
77868;SDS011;67231;59.144;37.934;2023-07-28T09:28:03;17.08;;;12.40;;
77868;SDS011;67231;59.144;37.934;2023-07-28T09:30:46;19.58;;;11.68;;
77868;SDS011;67231;59.144;37.934;2023-07-28T09:33:31;18.52;;;12.18;;
77868;SDS011;67231;59.144;37.934;2023-07-28T09:36:09;19.17;;;11.25;;
77868;SDS011;67231;59.144;37.934;2023-07-28T09:38:38;17.38;;;11.68;;
77868;SDS011;67231;59.144;37.934;2023-07-28T09:41:07;20.73;;;11.13;;
77868;SDS011;67231;59.144;37.934;2023-07-28T09:43:37;15.48;;;11.20;;
77868;SDS011;67231;59.144;37.934;2023-07-28T09:46:05;16.83;;;10.73;;
77868;SDS011;67231;59.144;37.934;2023-07-28T09:48:33;19.70;;;11.63;;
77868;SDS011;67231;59.144;37.934;2023-07-28T09:51:34;16.20;;;9.10;;
77868;SDS011;67231;59.144;37.934;2023-07-28T09:54:11;16.15;;;10.00;;
77868;SDS011;67231;59.144;37.934;2023-07-28T09:56:38;15.48;;;10.77;;
77868;SDS011;67231;59.144;37.934;2023-07-28T09:59:08;14.43;;;10.57;;
77868;SDS011;67231;59.144;37.934;2023-07-28T10:01:40;16.55;;;11.05;;
77868;SDS011;67231;59.144;37.934;2023-07-28T10:04:07;18.33;;;9.82;;
77868;SDS011;67231;59.144;37.934;2023-07-28T10:06:34;14.48;;;10.77;;
77868;SDS011;67231;59.144;37.934;2023-07-28T10:09:00;15.10;;;10.52;;
77868;SDS011;67231;59.144;37.934;2023-07-28T10:11:27;16.10;;;11.43;;
77868;SDS011;67231;59.144;37.934;2023-07-28T10:13:53;16.85;;;11.52;;
77868;SDS011;67231;59.144;37.934;2023-07-28T10:16:30;15.77;;;11.15;;
77868;SDS011;67231;59.144;37.934;2023-07-28T10:19:02;15.73;;;10.38;;
77868;SDS011;67231;59.144;37.934;2023-07-28T10:21:29;15.63;;;11.68;;
77868;SDS011;67231;59.144;37.934;2023-07-28T10:24:00;15.88;;;10.48;;
77868;SDS011;67231;59.144;37.934;2023-07-28T10:26:36;16.98;;;10.65;;
77868;SDS011;67231;59.144;37.934;2023-07-28T10:29:14;16.60;;;11.63;;
77868;SDS011;67231;59.144;37.934;2023-07-28T10:31:50;21.05;;;10.80;;
77868;SDS011;67231;59.144;37.934;2023-07-28T10:34:18;15.15;;;11.27;;
77868;SDS011;67231;59.144;37.934;2023-07-28T10:36:46;16.42;;;11.73;;
77868;SDS011;67231;59.144;37.934;2023-07-28T10:39:14;16.27;;;10.88;;
77868;SDS011;67231;59.144;37.934;2023-07-28T10:44:32;17.52;;;10.80;;
77868;SDS011;67231;59.144;37.934;2023-07-28T10:46:59;14.70;;;11.13;;
77868;SDS011;67231;59.144;37.934;2023-07-28T10:49:25;16.35;;;11.18;;
77868;SDS011;67231;59.144;37.934;2023-07-28T10:51:52;15.13;;;10.13;;
77868;SDS011;67231;59.144;37.934;2023-07-28T10:54:18;14.88;;;10.43;;
77868;SDS011;67231;59.144;37.934;2023-07-28T10:56:46;14.90;;;9.88;;
77868;SDS011;67231;59.144;37.934;2023-07-28T10:59:14;13.48;;;10.77;;
77868;SDS011;67231;59.144;37.934;2023-07-28T11:01:41;15.15;;;10.77;;
77868;SDS011;67231;59.144;37.934;2023-07-28T11:04:15;15.63;;;10.65;;
77868;SDS011;67231;59.144;37.934;2023-07-28T11:06:44;16.50;;;11.68;;
77868;SDS011;67231;59.144;37.934;2023-07-28T11:09:12;15.82;;;10.48;;
77868;SDS011;67231;59.144;37.934;2023-07-28T11:11:40;15.98;;;11.18;;
77868;SDS011;67231;59.144;37.934;2023-07-28T11:14:08;19.15;;;11.48;;
77868;SDS011;67231;59.144;37.934;2023-07-28T11:16:35;20.25;;;12.32;;
77868;SDS011;67231;59.144;37.934;2023-07-28T11:19:08;17.40;;;11.90;;
77868;SDS011;67231;59.144;37.934;2023-07-28T11:21:37;18.08;;;11.93;;
77868;SDS011;67231;59.144;37.934;2023-07-28T11:24:07;16.50;;;12.02;;
77868;SDS011;67231;59.144;37.934;2023-07-28T11:26:34;18.48;;;12.00;;
77868;SDS011;67231;59.144;37.934;2023-07-28T11:29:02;20.83;;;13.75;;
77868;SDS011;67231;59.144;37.934;2023-07-28T11:31:30;21.60;;;12.13;;
77868;SDS011;67231;59.144;37.934;2023-07-28T11:33:57;16.63;;;12.13;;
77868;SDS011;67231;59.144;37.934;2023-07-28T11:36:26;18.13;;;12.90;;
77868;SDS011;67231;59.144;37.934;2023-07-28T11:38:55;16.83;;;12.88;;
77868;SDS011;67231;59.144;37.934;2023-07-28T11:41:25;17.95;;;12.02;;
77868;SDS011;67231;59.144;37.934;2023-07-28T11:43:52;20.00;;;12.25;;
77868;SDS011;67231;59.144;37.934;2023-07-28T11:46:39;19.00;;;11.90;;
77868;SDS011;67231;59.144;37.934;2023-07-28T11:49:16;18.70;;;12.38;;
77868;SDS011;67231;59.144;37.934;2023-07-28T11:51:46;18.70;;;11.40;;
77868;SDS011;67231;59.144;37.934;2023-07-28T11:54:14;17.33;;;11.82;;
77868;SDS011;67231;59.144;37.934;2023-07-28T11:56:42;17.58;;;11.73;;
77868;SDS011;67231;59.144;37.934;2023-07-28T11:59:10;18.08;;;11.85;;
77868;SDS011;67231;59.144;37.934;2023-07-28T12:01:51;17.65;;;11.15;;
77868;SDS011;67231;59.144;37.934;2023-07-28T12:07:19;16.52;;;12.25;;
77868;SDS011;67231;59.144;37.934;2023-07-28T12:12:12;15.82;;;12.13;;
77868;SDS011;67231;59.144;37.934;2023-07-28T12:14:39;16.65;;;12.15;;
77868;SDS011;67231;59.144;37.934;2023-07-28T12:17:12;16.38;;;12.13;;
77868;SDS011;67231;59.144;37.934;2023-07-28T12:19:54;17.15;;;12.50;;
77868;SDS011;67231;59.144;37.934;2023-07-28T12:22:21;20.10;;;12.95;;
77868;SDS011;67231;59.144;37.934;2023-07-28T12:24:48;20.45;;;11.95;;
77868;SDS011;67231;59.144;37.934;2023-07-28T12:27:14;24.25;;;13.38;;
77868;SDS011;67231;59.144;37.934;2023-07-28T12:29:41;17.58;;;12.27;;
77868;SDS011;67231;59.144;37.934;2023-07-28T12:32:08;17.35;;;12.23;;
77868;SDS011;67231;59.144;37.934;2023-07-28T12:34:34;18.35;;;11.77;;
77868;SDS011;67231;59.144;37.934;2023-07-28T12:37:00;17.20;;;11.48;;
77868;SDS011;67231;59.144;37.934;2023-07-28T12:39:27;17.08;;;11.82;;
77868;SDS011;67231;59.144;37.934;2023-07-28T12:41:55;15.65;;;10.32;;
77868;SDS011;67231;59.144;37.934;2023-07-28T12:44:21;19.35;;;12.07;;
77868;SDS011;67231;59.144;37.934;2023-07-28T12:46:47;18.83;;;11.77;;
77868;SDS011;67231;59.144;37.934;2023-07-28T12:49:14;17.88;;;12.25;;
77868;SDS011;67231;59.144;37.934;2023-07-28T12:51:40;15.95;;;11.50;;
77868;SDS011;67231;59.144;37.934;2023-07-28T12:54:07;14.40;;;10.27;;
77868;SDS011;67231;59.144;37.934;2023-07-28T12:56:33;14.25;;;10.57;;
77868;SDS011;67231;59.144;37.934;2023-07-28T12:59:00;16.55;;;11.45;;
77868;SDS011;67231;59.144;37.934;2023-07-28T13:01:26;14.05;;;10.32;;
77868;SDS011;67231;59.144;37.934;2023-07-28T13:03:52;16.08;;;11.27;;
77868;SDS011;67231;59.144;37.934;2023-07-28T13:06:19;13.30;;;10.13;;
77868;SDS011;67231;59.144;37.934;2023-07-28T13:08:45;13.55;;;10.15;;
77868;SDS011;67231;59.144;37.934;2023-07-28T13:11:12;15.50;;;10.30;;
77868;SDS011;67231;59.144;37.934;2023-07-28T13:13:40;16.20;;;10.40;;
77868;SDS011;67231;59.144;37.934;2023-07-28T13:16:07;13.73;;;9.98;;
77868;SDS011;67231;59.144;37.934;2023-07-28T13:18:33;14.98;;;10.23;;
77868;SDS011;67231;59.144;37.934;2023-07-28T13:21:00;14.43;;;9.55;;
77868;SDS011;67231;59.144;37.934;2023-07-28T13:23:26;15.93;;;10.65;;
77868;SDS011;67231;59.144;37.934;2023-07-28T13:25:52;14.13;;;10.00;;
77868;SDS011;67231;59.144;37.934;2023-07-28T13:28:19;16.85;;;10.80;;
77868;SDS011;67231;59.144;37.934;2023-07-28T13:30:45;16.17;;;11.00;;
77868;SDS011;67231;59.144;37.934;2023-07-28T13:33:11;16.40;;;11.50;;
77868;SDS011;67231;59.144;37.934;2023-07-28T13:35:39;20.52;;;11.25;;
77868;SDS011;67231;59.144;37.934;2023-07-28T13:38:05;15.27;;;10.88;;
77868;SDS011;67231;59.144;37.934;2023-07-28T13:40:31;17.08;;;11.40;;
77868;SDS011;67231;59.144;37.934;2023-07-28T13:42:58;18.77;;;11.07;;
77868;SDS011;67231;59.144;37.934;2023-07-28T13:45:24;17.20;;;10.60;;
77868;SDS011;67231;59.144;37.934;2023-07-28T13:47:51;17.35;;;11.10;;
77868;SDS011;67231;59.144;37.934;2023-07-28T13:50:18;15.85;;;10.43;;
77868;SDS011;67231;59.144;37.934;2023-07-28T13:52:44;14.10;;;10.60;;
77868;SDS011;67231;59.144;37.934;2023-07-28T13:55:11;13.98;;;9.80;;
77868;SDS011;67231;59.144;37.934;2023-07-28T13:57:37;13.82;;;10.27;;
77868;SDS011;67231;59.144;37.934;2023-07-28T14:00:05;12.65;;;10.38;;
77868;SDS011;67231;59.144;37.934;2023-07-28T14:02:35;14.35;;;10.38;;
77868;SDS011;67231;59.144;37.934;2023-07-28T14:05:02;13.65;;;10.38;;
77868;SDS011;67231;59.144;37.934;2023-07-28T14:07:30;14.75;;;10.93;;
77868;SDS011;67231;59.144;37.934;2023-07-28T14:09:57;12.85;;;9.93;;
77868;SDS011;67231;59.144;37.934;2023-07-28T14:12:23;14.40;;;11.45;;
77868;SDS011;67231;59.144;37.934;2023-07-28T14:14:49;15.43;;;10.82;;
77868;SDS011;67231;59.144;37.934;2023-07-28T14:17:16;15.05;;;9.60;;
77868;SDS011;67231;59.144;37.934;2023-07-28T14:19:42;16.00;;;9.38;;
77868;SDS011;67231;59.144;37.934;2023-07-28T14:22:08;15.52;;;10.00;;
77868;SDS011;67231;59.144;37.934;2023-07-28T14:24:35;14.13;;;10.00;;
77868;SDS011;67231;59.144;37.934;2023-07-28T14:27:01;18.08;;;10.68;;
77868;SDS011;67231;59.144;37.934;2023-07-28T14:29:28;14.50;;;9.98;;
77868;SDS011;67231;59.144;37.934;2023-07-28T14:31:55;14.80;;;10.55;;
77868;SDS011;67231;59.144;37.934;2023-07-28T14:34:21;13.50;;;10.20;;
77868;SDS011;67231;59.144;37.934;2023-07-28T14:36:47;13.65;;;8.65;;
77868;SDS011;67231;59.144;37.934;2023-07-28T14:39:14;13.40;;;10.68;;